sensor_id;sensor_type;location;lat;lon;timestamp;P1;durP1;ratioP1;P2;durP2;ratioP2
33802;SDS011;20110;53.120;5.786;2023-04-01T00:00:59;22.05;;;11.38;;
33802;SDS011;20110;53.120;5.786;2023-04-01T00:03:27;17.90;;;10.18;;
33802;SDS011;20110;53.120;5.786;2023-04-01T00:05:54;30.42;;;11.25;;
33802;SDS011;20110;53.120;5.786;2023-04-01T00:08:22;20.58;;;10.73;;
33802;SDS011;20110;53.120;5.786;2023-04-01T00:10:49;22.85;;;10.95;;
33802;SDS011;20110;53.120;5.786;2023-04-01T00:13:16;24.85;;;9.82;;
33802;SDS011;20110;53.120;5.786;2023-04-01T00:15:42;15.50;;;9.48;;
33802;SDS011;20110;53.120;5.786;2023-04-01T00:18:08;17.08;;;9.93;;
33802;SDS011;20110;53.120;5.786;2023-04-01T00:20:34;18.73;;;10.13;;
33802;SDS011;20110;53.120;5.786;2023-04-01T00:23:00;20.30;;;10.43;;
33802;SDS011;20110;53.120;5.786;2023-04-01T00:25:26;17.00;;;10.00;;
33802;SDS011;20110;53.120;5.786;2023-04-01T00:27:53;14.80;;;9.40;;
33802;SDS011;20110;53.120;5.786;2023-04-01T00:30:19;18.20;;;9.88;;
33802;SDS011;20110;53.120;5.786;2023-04-01T00:32:45;17.95;;;10.25;;
33802;SDS011;20110;53.120;5.786;2023-04-01T00:35:11;18.17;;;10.75;;
33802;SDS011;20110;53.120;5.786;2023-04-01T00:37:37;18.63;;;10.63;;
33802;SDS011;20110;53.120;5.786;2023-04-01T00:40:07;18.52;;;9.98;;
33802;SDS011;20110;53.120;5.786;2023-04-01T00:42:57;18.52;;;9.70;;
33802;SDS011;20110;53.120;5.786;2023-04-01T00:45:26;19.73;;;11.30;;
33802;SDS011;20110;53.120;5.786;2023-04-01T00:47:57;20.02;;;11.82;;
33802;SDS011;20110;53.120;5.786;2023-04-01T00:50:29;23.80;;;11.23;;
33802;SDS011;20110;53.120;5.786;2023-04-01T00:52:57;26.33;;;11.40;;
33802;SDS011;20110;53.120;5.786;2023-04-01T00:55:25;26.83;;;11.57;;
33802;SDS011;20110;53.120;5.786;2023-04-01T00:57:56;26.58;;;12.65;;
33802;SDS011;20110;53.120;5.786;2023-04-01T01:00:24;28.67;;;12.48;;
33802;SDS011;20110;53.120;5.786;2023-04-01T01:02:51;22.77;;;11.98;;
33802;SDS011;20110;53.120;5.786;2023-04-01T01:05:18;21.73;;;11.55;;
33802;SDS011;20110;53.120;5.786;2023-04-01T01:10:55;21.88;;;11.70;;
33802;SDS011;20110;53.120;5.786;2023-04-01T01:13:31;18.88;;;10.50;;
33802;SDS011;20110;53.120;5.786;2023-04-01T01:16:20;16.77;;;8.20;;
33802;SDS011;20110;53.120;5.786;2023-04-01T01:33:34;27.67;;;12.18;;
33802;SDS011;20110;53.120;5.786;2023-04-01T01:36:36;34.33;;;12.63;;
33802;SDS011;20110;53.120;5.786;2023-04-01T01:39:07;24.60;;;12.20;;
33802;SDS011;20110;53.120;5.786;2023-04-01T01:41:35;29.00;;;12.60;;
33802;SDS011;20110;53.120;5.786;2023-04-01T01:44:07;24.55;;;12.57;;
33802;SDS011;20110;53.120;5.786;2023-04-01T01:46:37;25.70;;;12.45;;
33802;SDS011;20110;53.120;5.786;2023-04-01T01:49:07;33.80;;;12.90;;
33802;SDS011;20110;53.120;5.786;2023-04-01T01:51:37;26.00;;;13.30;;
33802;SDS011;20110;53.120;5.786;2023-04-01T01:54:04;29.08;;;13.95;;
33802;SDS011;20110;53.120;5.786;2023-04-01T01:56:30;23.83;;;12.60;;
33802;SDS011;20110;53.120;5.786;2023-04-01T01:59:01;32.72;;;12.60;;
33802;SDS011;20110;53.120;5.786;2023-04-01T02:01:34;29.80;;;13.13;;
33802;SDS011;20110;53.120;5.786;2023-04-01T02:04:06;29.13;;;12.98;;
33802;SDS011;20110;53.120;5.786;2023-04-01T02:06:37;27.38;;;13.75;;
33802;SDS011;20110;53.120;5.786;2023-04-01T02:09:10;29.75;;;14.52;;
33802;SDS011;20110;53.120;5.786;2023-04-01T02:11:38;30.30;;;12.82;;
33802;SDS011;20110;53.120;5.786;2023-04-01T02:14:43;32.05;;;13.43;;
33802;SDS011;20110;53.120;5.786;2023-04-01T02:17:21;35.30;;;13.20;;
33802;SDS011;20110;53.120;5.786;2023-04-01T02:19:52;24.95;;;12.80;;
33802;SDS011;20110;53.120;5.786;2023-04-01T02:22:31;26.65;;;12.23;;
33802;SDS011;20110;53.120;5.786;2023-04-01T02:25:06;23.48;;;12.15;;
33802;SDS011;20110;53.120;5.786;2023-04-01T02:30:04;27.63;;;12.68;;
33802;SDS011;20110;53.120;5.786;2023-04-01T02:32:31;34.25;;;11.95;;
33802;SDS011;20110;53.120;5.786;2023-04-01T02:35:02;27.45;;;12.43;;
33802;SDS011;20110;53.120;5.786;2023-04-01T02:37:36;27.67;;;13.30;;
33802;SDS011;20110;53.120;5.786;2023-04-01T02:40:04;22.23;;;11.82;;
33802;SDS011;20110;53.120;5.786;2023-04-01T02:42:33;30.50;;;12.95;;
33802;SDS011;20110;53.120;5.786;2023-04-01T02:44:59;27.98;;;11.82;;
33802;SDS011;20110;53.120;5.786;2023-04-01T02:47:25;23.45;;;13.27;;
33802;SDS011;20110;53.120;5.786;2023-04-01T02:49:51;25.63;;;12.23;;
33802;SDS011;20110;53.120;5.786;2023-04-01T02:52:23;33.65;;;13.32;;
33802;SDS011;20110;53.120;5.786;2023-04-01T02:54:49;25.15;;;13.32;;
33802;SDS011;20110;53.120;5.786;2023-04-01T02:57:15;26.70;;;12.80;;
33802;SDS011;20110;53.120;5.786;2023-04-01T02:59:41;20.00;;;11.98;;
33802;SDS011;20110;53.120;5.786;2023-04-01T03:02:07;24.27;;;12.18;;
33802;SDS011;20110;53.120;5.786;2023-04-01T03:04:33;23.67;;;12.23;;
33802;SDS011;20110;53.120;5.786;2023-04-01T03:06:59;31.40;;;12.98;;
33802;SDS011;20110;53.120;5.786;2023-04-01T03:09:25;21.35;;;12.52;;
33802;SDS011;20110;53.120;5.786;2023-04-01T03:11:50;27.15;;;11.70;;
33802;SDS011;20110;53.120;5.786;2023-04-01T03:14:16;28.35;;;13.43;;
33802;SDS011;20110;53.120;5.786;2023-04-01T03:16:42;22.90;;;11.85;;
33802;SDS011;20110;53.120;5.786;2023-04-01T03:19:08;24.23;;;11.40;;
33802;SDS011;20110;53.120;5.786;2023-04-01T03:21:34;26.42;;;14.10;;
33802;SDS011;20110;53.120;5.786;2023-04-01T03:23:59;28.65;;;12.25;;
33802;SDS011;20110;53.120;5.786;2023-04-01T03:26:25;25.08;;;13.35;;
33802;SDS011;20110;53.120;5.786;2023-04-01T03:28:53;29.25;;;13.65;;
33802;SDS011;20110;53.120;5.786;2023-04-01T03:31:20;27.73;;;13.05;;
33802;SDS011;20110;53.120;5.786;2023-04-01T03:33:47;32.85;;;13.23;;
33802;SDS011;20110;53.120;5.786;2023-04-01T03:36:13;26.55;;;13.15;;
33802;SDS011;20110;53.120;5.786;2023-04-01T03:38:42;28.75;;;13.40;;
33802;SDS011;20110;53.120;5.786;2023-04-01T03:41:16;31.98;;;14.38;;
33802;SDS011;20110;53.120;5.786;2023-04-01T03:43:43;36.63;;;13.48;;
33802;SDS011;20110;53.120;5.786;2023-04-01T03:46:09;25.42;;;13.52;;
33802;SDS011;20110;53.120;5.786;2023-04-01T03:48:35;31.23;;;13.75;;
33802;SDS011;20110;53.120;5.786;2023-04-01T03:51:01;31.42;;;14.25;;
33802;SDS011;20110;53.120;5.786;2023-04-01T03:53:32;34.03;;;14.00;;
33802;SDS011;20110;53.120;5.786;2023-04-01T03:55:58;32.55;;;13.60;;
33802;SDS011;20110;53.120;5.786;2023-04-01T03:58:30;26.23;;;13.88;;
33802;SDS011;20110;53.120;5.786;2023-04-01T04:00:55;31.98;;;14.60;;
33802;SDS011;20110;53.120;5.786;2023-04-01T04:03:22;27.77;;;12.68;;
33802;SDS011;20110;53.120;5.786;2023-04-01T04:05:48;28.50;;;12.85;;
33802;SDS011;20110;53.120;5.786;2023-04-01T04:08:15;29.13;;;14.32;;
33802;SDS011;20110;53.120;5.786;2023-04-01T04:10:42;32.08;;;13.85;;
33802;SDS011;20110;53.120;5.786;2023-04-01T04:13:08;34.47;;;14.02;;
33802;SDS011;20110;53.120;5.786;2023-04-01T04:15:34;37.72;;;15.27;;
33802;SDS011;20110;53.120;5.786;2023-04-01T04:18:00;28.65;;;14.05;;
33802;SDS011;20110;53.120;5.786;2023-04-01T04:20:26;32.88;;;14.45;;
33802;SDS011;20110;53.120;5.786;2023-04-01T04:22:52;27.67;;;13.13;;
33802;SDS011;20110;53.120;5.786;2023-04-01T04:25:17;35.05;;;15.52;;
33802;SDS011;20110;53.120;5.786;2023-04-01T04:27:43;28.58;;;14.02;;
33802;SDS011;20110;53.120;5.786;2023-04-01T04:30:09;34.50;;;14.00;;
33802;SDS011;20110;53.120;5.786;2023-04-01T04:32:35;30.50;;;14.05;;
33802;SDS011;20110;53.120;5.786;2023-04-01T04:35:02;34.08;;;14.18;;
33802;SDS011;20110;53.120;5.786;2023-04-01T04:37:28;41.60;;;15.45;;
33802;SDS011;20110;53.120;5.786;2023-04-01T04:39:54;43.45;;;15.57;;
33802;SDS011;20110;53.120;5.786;2023-04-01T04:42:19;37.63;;;13.82;;
33802;SDS011;20110;53.120;5.786;2023-04-01T04:44:45;29.55;;;15.10;;
33802;SDS011;20110;53.120;5.786;2023-04-01T04:47:11;36.67;;;16.25;;
33802;SDS011;20110;53.120;5.786;2023-04-01T04:49:37;39.10;;;15.85;;
33802;SDS011;20110;53.120;5.786;2023-04-01T04:52:03;38.67;;;15.68;;
33802;SDS011;20110;53.120;5.786;2023-04-01T04:54:29;42.78;;;15.55;;
33802;SDS011;20110;53.120;5.786;2023-04-01T04:56:55;39.35;;;15.43;;
33802;SDS011;20110;53.120;5.786;2023-04-01T04:59:20;36.15;;;15.88;;
33802;SDS011;20110;53.120;5.786;2023-04-01T05:01:46;36.17;;;16.48;;
33802;SDS011;20110;53.120;5.786;2023-04-01T05:04:12;29.58;;;14.35;;
33802;SDS011;20110;53.120;5.786;2023-04-01T05:06:38;32.90;;;14.88;;
33802;SDS011;20110;53.120;5.786;2023-04-01T05:09:03;38.45;;;16.48;;
33802;SDS011;20110;53.120;5.786;2023-04-01T05:11:29;39.28;;;17.13;;
33802;SDS011;20110;53.120;5.786;2023-04-01T05:13:55;47.72;;;16.85;;
33802;SDS011;20110;53.120;5.786;2023-04-01T05:16:21;41.38;;;16.08;;
33802;SDS011;20110;53.120;5.786;2023-04-01T05:18:47;37.80;;;16.38;;
33802;SDS011;20110;53.120;5.786;2023-04-01T05:21:13;41.80;;;17.60;;
33802;SDS011;20110;53.120;5.786;2023-04-01T05:23:41;38.88;;;17.33;;
33802;SDS011;20110;53.120;5.786;2023-04-01T05:26:09;42.13;;;17.25;;
33802;SDS011;20110;53.120;5.786;2023-04-01T05:28:37;42.13;;;17.10;;
33802;SDS011;20110;53.120;5.786;2023-04-01T05:31:04;39.05;;;17.83;;
33802;SDS011;20110;53.120;5.786;2023-04-01T05:33:31;36.83;;;17.08;;
33802;SDS011;20110;53.120;5.786;2023-04-01T05:36:05;47.97;;;19.83;;
33802;SDS011;20110;53.120;5.786;2023-04-01T05:38:36;48.95;;;18.35;;
33802;SDS011;20110;53.120;5.786;2023-04-01T05:41:03;41.75;;;17.80;;
33802;SDS011;20110;53.120;5.786;2023-04-01T05:43:29;42.30;;;19.08;;
33802;SDS011;20110;53.120;5.786;2023-04-01T05:45:55;45.03;;;19.50;;
33802;SDS011;20110;53.120;5.786;2023-04-01T05:48:22;43.95;;;18.25;;
33802;SDS011;20110;53.120;5.786;2023-04-01T05:50:47;51.17;;;21.10;;
33802;SDS011;20110;53.120;5.786;2023-04-01T05:53:13;52.60;;;19.60;;
33802;SDS011;20110;53.120;5.786;2023-04-01T05:55:39;55.15;;;20.02;;
33802;SDS011;20110;53.120;5.786;2023-04-01T05:58:05;49.53;;;22.05;;
33802;SDS011;20110;53.120;5.786;2023-04-01T06:00:30;41.03;;;20.35;;
33802;SDS011;20110;53.120;5.786;2023-04-01T06:02:58;40.90;;;18.85;;
33802;SDS011;20110;53.120;5.786;2023-04-01T06:05:26;35.72;;;17.02;;
33802;SDS011;20110;53.120;5.786;2023-04-01T06:07:59;35.72;;;16.90;;
33802;SDS011;20110;53.120;5.786;2023-04-01T06:16:35;44.17;;;19.45;;
33802;SDS011;20110;53.120;5.786;2023-04-01T06:22:21;39.13;;;17.85;;
33802;SDS011;20110;53.120;5.786;2023-04-01T06:36:50;33.67;;;18.17;;
33802;SDS011;20110;53.120;5.786;2023-04-01T06:45:00;37.17;;;16.15;;
33802;SDS011;20110;53.120;5.786;2023-04-01T06:47:46;38.47;;;18.35;;
33802;SDS011;20110;53.120;5.786;2023-04-01T06:56:25;30.67;;;15.00;;
33802;SDS011;20110;53.120;5.786;2023-04-01T06:58:59;36.33;;;17.17;;
33802;SDS011;20110;53.120;5.786;2023-04-01T07:01:37;30.65;;;15.98;;
33802;SDS011;20110;53.120;5.786;2023-04-01T07:04:26;34.88;;;17.33;;
33802;SDS011;20110;53.120;5.786;2023-04-01T07:07:05;33.40;;;16.15;;
33802;SDS011;20110;53.120;5.786;2023-04-01T07:09:52;34.45;;;15.82;;
33802;SDS011;20110;53.120;5.786;2023-04-01T07:15:05;26.33;;;14.13;;
33802;SDS011;20110;53.120;5.786;2023-04-01T07:17:46;29.08;;;15.65;;
33802;SDS011;20110;53.120;5.786;2023-04-01T07:20:29;38.13;;;16.05;;
33802;SDS011;20110;53.120;5.786;2023-04-01T07:23:04;28.42;;;14.65;;
33802;SDS011;20110;53.120;5.786;2023-04-01T07:26:06;29.02;;;14.30;;
33802;SDS011;20110;53.120;5.786;2023-04-01T07:28:48;29.30;;;14.40;;
33802;SDS011;20110;53.120;5.786;2023-04-01T07:31:32;30.20;;;13.95;;
33802;SDS011;20110;53.120;5.786;2023-04-01T07:34:36;27.23;;;14.27;;
33802;SDS011;20110;53.120;5.786;2023-04-01T07:37:14;25.42;;;14.23;;
33802;SDS011;20110;53.120;5.786;2023-04-01T07:49:04;37.30;;;15.65;;
33802;SDS011;20110;53.120;5.786;2023-04-01T07:52:00;31.95;;;15.75;;
33802;SDS011;20110;53.120;5.786;2023-04-01T08:04:05;32.20;;;16.65;;
33802;SDS011;20110;53.120;5.786;2023-04-01T08:10:02;31.60;;;17.45;;
33802;SDS011;20110;53.120;5.786;2023-04-01T08:21:46;36.58;;;17.85;;
33802;SDS011;20110;53.120;5.786;2023-04-01T08:24:20;55.55;;;19.90;;
33802;SDS011;20110;53.120;5.786;2023-04-01T08:27:03;46.97;;;20.23;;
33802;SDS011;20110;53.120;5.786;2023-04-01T08:30:10;38.22;;;18.83;;
33802;SDS011;20110;53.120;5.786;2023-04-01T08:33:05;42.80;;;18.00;;
33802;SDS011;20110;53.120;5.786;2023-04-01T08:36:52;42.00;;;18.48;;
33802;SDS011;20110;53.120;5.786;2023-04-01T08:38:54;30.48;;;16.45;;
33802;SDS011;20110;53.120;5.786;2023-04-01T08:56:14;21.70;;;8.18;;
33802;SDS011;20110;53.120;5.786;2023-04-01T09:02:16;12.63;;;8.18;;
33802;SDS011;20110;53.120;5.786;2023-04-01T09:05:22;16.08;;;8.25;;
33802;SDS011;20110;53.120;5.786;2023-04-01T09:23:32;14.50;;;7.00;;
33802;SDS011;20110;53.120;5.786;2023-04-01T09:26:29;19.77;;;7.63;;
33802;SDS011;20110;53.120;5.786;2023-04-01T09:46:56;7.78;;;5.32;;
33802;SDS011;20110;53.120;5.786;2023-04-01T09:58:42;6.35;;;2.97;;
33802;SDS011;20110;53.120;5.786;2023-04-01T10:38:36;9.27;;;4.43;;
33802;SDS011;20110;53.120;5.786;2023-04-01T10:45:03;7.85;;;4.03;;
33802;SDS011;20110;53.120;5.786;2023-04-01T10:55:09;5.03;;;4.28;;
33802;SDS011;20110;53.120;5.786;2023-04-01T11:01:07;6.50;;;4.15;;
33802;SDS011;20110;53.120;5.786;2023-04-01T11:07:22;5.37;;;3.33;;
33802;SDS011;20110;53.120;5.786;2023-04-01T11:33:54;6.78;;;5.03;;
33802;SDS011;20110;53.120;5.786;2023-04-01T11:42:28;3.92;;;3.63;;
33802;SDS011;20110;53.120;5.786;2023-04-01T11:48:03;4.68;;;3.40;;
33802;SDS011;20110;53.120;5.786;2023-04-01T11:51:10;6.13;;;3.05;;
33802;SDS011;20110;53.120;5.786;2023-04-01T11:57:17;6.57;;;3.08;;
33802;SDS011;20110;53.120;5.786;2023-04-01T12:06:06;2.85;;;2.65;;
33802;SDS011;20110;53.120;5.786;2023-04-01T12:23:16;4.97;;;2.53;;
33802;SDS011;20110;53.120;5.786;2023-04-01T12:29:02;3.03;;;2.80;;
33802;SDS011;20110;53.120;5.786;2023-04-01T12:52:44;4.82;;;3.13;;
33802;SDS011;20110;53.120;5.786;2023-04-01T12:55:35;3.35;;;2.35;;
33802;SDS011;20110;53.120;5.786;2023-04-01T13:01:29;5.10;;;2.38;;
33802;SDS011;20110;53.120;5.786;2023-04-01T13:30:21;2.88;;;1.88;;
33802;SDS011;20110;53.120;5.786;2023-04-01T13:41:50;5.35;;;2.63;;
33802;SDS011;20110;53.120;5.786;2023-04-01T13:47:23;4.72;;;2.58;;
33802;SDS011;20110;53.120;5.786;2023-04-01T13:50:20;2.55;;;2.35;;
33802;SDS011;20110;53.120;5.786;2023-04-01T13:56:08;4.75;;;2.80;;
33802;SDS011;20110;53.120;5.786;2023-04-01T14:01:55;2.92;;;2.50;;
33802;SDS011;20110;53.120;5.786;2023-04-01T14:04:40;3.53;;;2.10;;
33802;SDS011;20110;53.120;5.786;2023-04-01T14:19:30;4.43;;;1.90;;
33802;SDS011;20110;53.120;5.786;2023-04-01T14:22:38;2.50;;;2.30;;
33802;SDS011;20110;53.120;5.786;2023-04-01T14:27:53;2.58;;;2.38;;
33802;SDS011;20110;53.120;5.786;2023-04-01T14:45:02;2.95;;;2.22;;
33802;SDS011;20110;53.120;5.786;2023-04-01T14:50:55;2.38;;;2.13;;
33802;SDS011;20110;53.120;5.786;2023-04-01T14:53:36;2.05;;;1.77;;
33802;SDS011;20110;53.120;5.786;2023-04-01T14:56:40;2.40;;;1.95;;
33802;SDS011;20110;53.120;5.786;2023-04-01T15:01:47;1.67;;;1.58;;
33802;SDS011;20110;53.120;5.786;2023-04-01T15:13:22;1.95;;;1.77;;
33802;SDS011;20110;53.120;5.786;2023-04-01T15:16:13;2.65;;;1.85;;
33802;SDS011;20110;53.120;5.786;2023-04-01T15:19:12;2.65;;;1.85;;
33802;SDS011;20110;53.120;5.786;2023-04-01T15:30:57;2.80;;;2.60;;
33802;SDS011;20110;53.120;5.786;2023-04-01T15:36:44;5.47;;;2.15;;
33802;SDS011;20110;53.120;5.786;2023-04-01T15:48:57;4.85;;;2.80;;
33802;SDS011;20110;53.120;5.786;2023-04-01T15:57:52;5.75;;;3.60;;
33802;SDS011;20110;53.120;5.786;2023-04-01T16:00:57;4.53;;;3.63;;
33802;SDS011;20110;53.120;5.786;2023-04-01T16:04:06;10.50;;;3.53;;
33802;SDS011;20110;53.120;5.786;2023-04-01T16:07:20;6.63;;;3.63;;
33802;SDS011;20110;53.120;5.786;2023-04-01T16:21:24;9.00;;;4.57;;
33802;SDS011;20110;53.120;5.786;2023-04-01T16:23:55;8.25;;;4.40;;
33802;SDS011;20110;53.120;5.786;2023-04-01T16:26:27;7.38;;;5.03;;
33802;SDS011;20110;53.120;5.786;2023-04-01T16:32:02;7.03;;;4.60;;
33802;SDS011;20110;53.120;5.786;2023-04-01T16:34:47;11.15;;;5.00;;
33802;SDS011;20110;53.120;5.786;2023-04-01T16:49:01;15.68;;;5.10;;
33802;SDS011;20110;53.120;5.786;2023-04-01T17:04:40;8.80;;;5.55;;
33802;SDS011;20110;53.120;5.786;2023-04-01T17:10:25;11.88;;;5.90;;
33802;SDS011;20110;53.120;5.786;2023-04-01T17:22:12;10.63;;;4.93;;
33802;SDS011;20110;53.120;5.786;2023-04-01T17:33:13;13.45;;;6.50;;
33802;SDS011;20110;53.120;5.786;2023-04-01T17:36:04;12.85;;;6.32;;
33802;SDS011;20110;53.120;5.786;2023-04-01T17:47:58;11.00;;;5.85;;
33802;SDS011;20110;53.120;5.786;2023-04-01T17:50:49;9.07;;;5.43;;
33802;SDS011;20110;53.120;5.786;2023-04-01T17:53:33;9.90;;;5.47;;
33802;SDS011;20110;53.120;5.786;2023-04-01T17:56:12;10.48;;;5.97;;
33802;SDS011;20110;53.120;5.786;2023-04-01T18:10:50;13.98;;;6.22;;
33802;SDS011;20110;53.120;5.786;2023-04-01T18:22:39;11.57;;;7.28;;
33802;SDS011;20110;53.120;5.786;2023-04-01T18:28:22;14.70;;;6.65;;
33802;SDS011;20110;53.120;5.786;2023-04-01T18:33:31;16.20;;;6.18;;
33802;SDS011;20110;53.120;5.786;2023-04-01T18:38:55;12.23;;;6.03;;
33802;SDS011;20110;53.120;5.786;2023-04-01T18:41:34;10.00;;;5.03;;
33802;SDS011;20110;53.120;5.786;2023-04-01T18:56:54;18.10;;;5.90;;
33802;SDS011;20110;53.120;5.786;2023-04-01T19:13:06;19.35;;;7.85;;
33802;SDS011;20110;53.120;5.786;2023-04-01T19:18:52;11.82;;;6.40;;
33802;SDS011;20110;53.120;5.786;2023-04-01T19:21:57;17.83;;;6.28;;
33802;SDS011;20110;53.120;5.786;2023-04-01T19:27:34;7.72;;;6.30;;
33802;SDS011;20110;53.120;5.786;2023-04-01T19:35:49;12.63;;;6.68;;
33802;SDS011;20110;53.120;5.786;2023-04-01T19:42:14;15.55;;;7.05;;
33802;SDS011;20110;53.120;5.786;2023-04-01T20:06:14;10.32;;;6.40;;
33802;SDS011;20110;53.120;5.786;2023-04-01T20:12:21;9.43;;;6.38;;
33802;SDS011;20110;53.120;5.786;2023-04-01T20:15:07;12.13;;;6.57;;
33802;SDS011;20110;53.120;5.786;2023-04-01T20:18:18;22.42;;;7.45;;
33802;SDS011;20110;53.120;5.786;2023-04-01T20:20:54;23.80;;;7.18;;
33802;SDS011;20110;53.120;5.786;2023-04-01T20:23:42;16.73;;;7.30;;
33802;SDS011;20110;53.120;5.786;2023-04-01T20:26:19;10.52;;;6.95;;
33802;SDS011;20110;53.120;5.786;2023-04-01T20:46:18;13.00;;;7.55;;
33802;SDS011;20110;53.120;5.786;2023-04-01T20:51:36;15.88;;;8.30;;
33802;SDS011;20110;53.120;5.786;2023-04-01T20:57:09;19.80;;;7.90;;
33802;SDS011;20110;53.120;5.786;2023-04-01T21:09:19;13.95;;;6.60;;
33802;SDS011;20110;53.120;5.786;2023-04-01T21:12:28;24.08;;;7.30;;
33802;SDS011;20110;53.120;5.786;2023-04-01T21:15:33;14.32;;;6.75;;
33802;SDS011;20110;53.120;5.786;2023-04-01T21:37:00;13.15;;;5.75;;
33802;SDS011;20110;53.120;5.786;2023-04-01T21:43:01;13.25;;;5.63;;
33802;SDS011;20110;53.120;5.786;2023-04-01T21:57:33;15.27;;;5.97;;
33802;SDS011;20110;53.120;5.786;2023-04-01T22:00:42;13.88;;;5.60;;
33802;SDS011;20110;53.120;5.786;2023-04-01T22:14:30;17.00;;;5.70;;
33802;SDS011;20110;53.120;5.786;2023-04-01T22:17:28;14.23;;;6.45;;
33802;SDS011;20110;53.120;5.786;2023-04-01T22:20:28;15.13;;;5.97;;
33802;SDS011;20110;53.120;5.786;2023-04-01T22:27:08;15.25;;;5.85;;
33802;SDS011;20110;53.120;5.786;2023-04-01T22:30:20;17.23;;;5.20;;
33802;SDS011;20110;53.120;5.786;2023-04-01T22:44:23;9.15;;;5.15;;
33802;SDS011;20110;53.120;5.786;2023-04-01T22:55:49;9.88;;;4.85;;
33802;SDS011;20110;53.120;5.786;2023-04-01T22:58:20;14.70;;;5.28;;
33802;SDS011;20110;53.120;5.786;2023-04-01T23:01:01;10.55;;;5.35;;
33802;SDS011;20110;53.120;5.786;2023-04-01T23:03:37;10.98;;;4.72;;
33802;SDS011;20110;53.120;5.786;2023-04-01T23:06:09;10.73;;;5.75;;
33802;SDS011;20110;53.120;5.786;2023-04-01T23:25:45;9.38;;;4.32;;
33802;SDS011;20110;53.120;5.786;2023-04-01T23:33:50;9.13;;;5.15;;
33802;SDS011;20110;53.120;5.786;2023-04-01T23:36:00;16.63;;;5.15;;
33802;SDS011;20110;53.120;5.786;2023-04-01T23:38:38;10.25;;;4.45;;
33802;SDS011;20110;53.120;5.786;2023-04-01T23:41:07;15.65;;;4.55;;
33802;SDS011;20110;53.120;5.786;2023-04-01T23:43:45;12.23;;;4.28;;
33802;SDS011;20110;53.120;5.786;2023-04-01T23:46:37;8.45;;;4.57;;
33802;SDS011;20110;53.120;5.786;2023-04-01T23:49:10;15.63;;;4.95;;
33802;SDS011;20110;53.120;5.786;2023-04-01T23:51:49;8.38;;;4.20;;
33802;SDS011;20110;53.120;5.786;2023-04-01T23:54:34;13.05;;;4.43;;
33802;SDS011;20110;53.120;5.786;2023-04-01T23:57:18;8.27;;;4.35;;
